Terminal Aerodrome Forecast
Issued by NWS Knoxville/Tri Cities, TN

Home | Current Version | Previous Version | Text Only | Print | Product List | Glossary On
Versions: 1 2 3 4 5 6 7 8 9 10 11 12 13 14
000
FTUS44 KMRX 282320
TAFCHA
TAF
KCHA 282320Z 2900/2924 30007KT P6SM SCT050 BKN100
     FM290400 30004KT P6SM VCTS BKN050CB
     FM290900 24005KT 6SM -TSRA BR BKN040CB
     FM291500 VRB03KT P6SM OVC040
     FM291800 27005KT P6SM VCTS OVC050CB=

USA.gov is the U.S. government's official web portal to all federal, state and local government web resources and services.